Time;durP1;ratioP1;P1;durP2;ratioP2;P2;SDS_P1;SDS_P2;PMS_P1;PMS_P2;Temp;Humidity;BMP_temperature;BMP_pressure;BME280_temperature;BME280_humidity;BME280_pressure;Samples;Min_cycle;Max_cycle;Signal;HPM_P1;HPM_P2
2022/10/30 00:00:04;;;;;;;;;;;;;;;15.52;95.23;101653.38;4985292;28;20121;-72
2022/10/30 00:02:30;;;;;;;;;;;;;;;15.51;95.44;101654.31;4997888;28;20192;-72
2022/10/30 00:04:55;;;;;;;;;;;;;;;15.51;95.37;101653.47;4984355;28;19960;-72
2022/10/30 00:07:20;;;;;;;;;;;;;;;15.49;95.36;101653.53;4981113;28;19921;-72
2022/10/30 00:09:45;;;;;;;;;;;;;;;15.49;95.24;101660.59;4976433;28;19918;-72
2022/10/30 00:12:11;;;;;;;;;;;;;;;15.47;95.24;101652.75;4977759;28;19926;-72
2022/10/30 00:14:36;;;;;;;;;;;;;;;15.47;95.27;101655.38;4960581;28;19936;-72
2022/10/30 00:17:01;;;;;;;;;;;;;;;15.47;95.17;101644.84;4990449;28;19921;-72
2022/10/30 00:19:27;;;;;;;;;;;;;;;15.45;95.33;101654.59;4989189;28;19910;-72
2022/10/30 00:21:52;;;;;;;;;;;;;;;15.44;95.20;101660.81;5011327;28;20112;-72
2022/10/30 00:24:17;;;;;;;;;;;;;;;15.44;95.43;101658.16;5009690;28;19941;-72
2022/10/30 00:26:42;;;;;;;;;;;;;;;15.43;95.37;101656.47;4999870;28;20113;-72
2022/10/30 00:29:08;;;;;;;;;;;;;;;15.42;95.27;101661.81;4989447;28;19935;-72
2022/10/30 00:31:33;;;;;;;;;;;;;;;15.41;95.11;101662.72;4991462;28;19913;-72
2022/10/30 00:33:58;;;;;;;;;;;;;;;15.39;95.28;101660.19;4994739;28;19925;-72
2022/10/30 00:36:23;;;;;;;;;;;;;;;15.40;95.30;101666.31;4998621;28;19909;-72
2022/10/30 00:38:49;;;;;;;;;;;;;;;15.38;95.06;101661.13;5015098;28;19905;-72
2022/10/30 00:41:15;;;;;;;;;;;;;;;15.38;95.25;101665.53;4989068;28;19909;-72
2022/10/30 00:43:41;;;;;;;;;;;;;;;15.36;95.13;101660.34;5017219;28;19921;-72
2022/10/30 00:46:17;;;;;;;;;;;;;;;15.35;95.16;101659.50;4999699;28;19922;-72
2022/10/30 00:48:44;;;;;;;;;;;;;;;15.34;95.12;101659.56;5000276;28;20167;-72
2022/10/30 00:51:10;;;;;;;;;;;;;;;15.33;95.07;101656.06;5007305;28;19964;-72
2022/10/30 00:53:35;;;;;;;;;;;;;;;15.32;94.94;101649.06;4999825;28;19913;-72
2022/10/30 00:56:03;;;;;;;;;;;;;;;15.32;94.79;101656.13;5016018;28;19922;-72
2022/10/30 00:58:35;;;;;;;;;;;;;;;15.29;94.94;101659.75;5017161;28;20216;-72
2022/10/30 01:01:02;;;;;;;;;;;;;;;15.29;94.83;101662.41;5004069;28;19909;-72
2022/10/30 01:03:29;;;;;;;;;;;;;;;15.27;94.96;101663.41;5021370;28;19913;-72
2022/10/30 01:05:57;;;;;;;;;;;;;;;15.26;94.90;101670.47;4980112;28;20234;-72
2022/10/30 01:08:22;;;;;;;;;;;;;;;15.25;94.92;101670.56;5006605;28;19918;-72
2022/10/30 01:10:48;;;;;;;;;;;;;;;15.24;94.82;101671.47;4992147;28;19997;-72
2022/10/30 01:13:13;;;;;;;;;;;;;;;15.22;94.76;101676.81;4995577;28;19926;-72
2022/10/30 01:15:44;;;;;;;;;;;;;;;15.21;94.76;101674.22;5006829;28;19960;-75
2022/10/30 01:18:13;;;;;;;;;;;;;;;15.19;94.78;101676.97;4978703;28;20236;-75
2022/10/30 01:20:47;;;;;;;;;;;;;;;15.18;94.72;101677.88;5002226;28;19918;-72
2022/10/30 01:23:18;;;;;;;;;;;;;;;15.17;94.59;101676.16;4993718;28;20280;-74
2022/10/30 01:26:05;;;;;;;;;;;;;;;15.15;94.66;101676.25;4995039;28;19918;-74
2022/10/30 01:28:49;;;;;;;;;;;;;;;15.14;94.61;101676.31;5002111;28;19987;-74
2022/10/30 01:31:33;;;;;;;;;;;;;;;15.13;94.94;101672.84;4993139;28;19917;-72
2022/10/30 01:34:16;;;;;;;;;;;;;;;15.11;94.70;101679.94;4994322;28;19925;-72
2022/10/30 01:37:00;;;;;;;;;;;;;;;15.10;94.74;101672.13;4994659;28;19917;-72
2022/10/30 01:39:27;;;;;;;;;;;;;;;15.09;94.81;101675.69;4995124;28;19912;-72
2022/10/30 01:41:52;;;;;;;;;;;;;;;15.06;94.77;101671.41;5003367;28;19918;-72
2022/10/30 01:44:22;;;;;;;;;;;;;;;15.05;94.69;101674.97;5003731;28;19922;-72
2022/10/30 01:46:50;;;;;;;;;;;;;;;15.04;94.72;101689.06;4992510;28;19909;-72
2022/10/30 01:49:24;;;;;;;;;;;;;;;15.02;94.84;101685.66;4995832;28;19913;-72
2022/10/30 01:51:55;;;;;;;;;;;;;;;14.99;94.74;101677.91;4994158;28;19917;-75
2022/10/30 01:54:32;;;;;;;;;;;;;;;14.99;94.52;101680.53;4995143;28;19917;-72
2022/10/30 01:56:57;;;;;;;;;;;;;;;14.97;94.52;101683.25;4996279;28;19924;-72
2022/10/30 01:59:22;;;;;;;;;;;;;;;14.95;94.44;101681.56;4996645;28;19949;-72
2022/10/30 02:04:47;;;;;;;;;;;;;;;14.93;94.32;101686.06;4997241;28;19910;-76
2022/10/30 02:07:12;;;;;;;;;;;;;;;14.92;94.39;101689.66;5000991;28;20261;-73
2022/10/30 02:09:38;;;;;;;;;;;;;;;14.90;94.32;101687.06;4982862;28;19941;-73
2022/10/30 02:12:04;;;;;;;;;;;;;;;14.89;94.52;101684.50;5000198;28;19921;-73
2022/10/30 02:14:32;;;;;;;;;;;;;;;14.88;94.37;101682.78;4999325;28;19921;-73
2022/10/30 02:16:59;;;;;;;;;;;;;;;14.87;94.37;101673.16;4999559;28;19952;-73
2022/10/30 02:19:24;;;;;;;;;;;;;;;14.85;94.49;101678.50;4999845;28;19918;-73
2022/10/30 02:21:50;;;;;;;;;;;;;;;14.84;94.58;101681.22;4982320;28;19902;-73
2022/10/30 02:24:15;;;;;;;;;;;;;;;14.83;94.72;101690.91;4999610;28;19918;-73
2022/10/30 02:26:40;;;;;;;;;;;;;;;14.81;94.56;101695.41;4999964;28;20201;-73
2022/10/30 02:29:06;;;;;;;;;;;;;;;14.80;94.51;101685.78;4999016;28;19991;-73
2022/10/30 02:31:31;;;;;;;;;;;;;;;14.80;94.56;101698.09;5000122;28;19913;-73
2022/10/30 02:33:56;;;;;;;;;;;;;;;14.76;94.53;101690.31;4999257;28;19960;-73
2022/10/30 02:36:21;;;;;;;;;;;;;;;14.77;94.62;101707.00;4998379;28;19960;-73
2022/10/30 02:38:47;;;;;;;;;;;;;;;14.74;94.73;101708.00;4999436;28;19922;-73
2022/10/30 02:41:12;;;;;;;;;;;;;;;14.73;94.68;101698.34;4981832;28;19910;-73
2022/10/30 02:43:37;;;;;;;;;;;;;;;14.71;94.56;101694.94;4999886;28;19918;-73
2022/10/30 02:46:02;;;;;;;;;;;;;;;14.71;94.64;101694.09;4999128;28;19914;-73
2022/10/30 02:48:31;;;;;;;;;;;;;;;14.69;94.58;101702.06;4999173;28;20198;-73
2022/10/30 02:51:00;;;;;;;;;;;;;;;14.68;94.41;101697.72;4999391;28;19925;-73
2022/10/30 02:53:25;;;;;;;;;;;;;;;14.68;94.54;101702.13;4999134;28;19926;-73
2022/10/30 02:55:50;;;;;;;;;;;;;;;14.66;94.61;101694.31;4998986;28;19969;-73
2022/10/30 02:58:16;;;;;;;;;;;;;;;14.64;94.50;101706.69;4999081;28;19920;-73
2022/10/30 03:00:41;;;;;;;;;;;;;;;14.65;94.84;101704.91;4981026;28;19929;-76
2022/10/30 03:03:06;;;;;;;;;;;;;;;14.63;94.52;101699.72;4999451;28;19972;-76
2022/10/30 03:05:31;;;;;;;;;;;;;;;14.62;94.61;101694.50;4999410;28;19924;-73
2022/10/30 03:07:57;;;;;;;;;;;;;;;14.59;94.43;101691.06;4999200;28;20141;-73
2022/10/30 03:10:22;;;;;;;;;;;;;;;14.59;94.61;101696.34;4980992;28;20220;-73
2022/10/30 03:12:47;;;;;;;;;;;;;;;14.57;94.44;101690.28;4998000;28;20268;-75
2022/10/30 03:15:12;;;;;;;;;;;;;;;14.56;94.57;101680.63;4994083;28;19918;-76
2022/10/30 03:17:38;;;;;;;;;;;;;;;14.55;94.81;101672.78;4981467;28;19936;-73
2022/10/30 03:20:03;;;;;;;;;;;;;;;14.54;94.48;101676.38;4981610;28;19922;-73
2022/10/30 03:22:29;;;;;;;;;;;;;;;14.53;94.57;101677.28;4998704;28;19913;-73
2022/10/30 03:24:54;;;;;;;;;;;;;;;14.51;94.71;101682.59;4981095;28;20173;-73
2022/10/30 03:27:19;;;;;;;;;;;;;;;14.51;94.69;101692.31;4998272;28;19929;-73
2022/10/30 03:29:44;;;;;;;;;;;;;;;14.49;94.55;101681.81;4998300;28;19988;-73
2022/10/30 03:32:10;;;;;;;;;;;;;;;14.47;94.46;101683.66;4998541;28;20106;-73
2022/10/30 03:34:35;;;;;;;;;;;;;;;14.45;94.37;101679.41;4981173;28;20221;-73
2022/10/30 03:37:01;;;;;;;;;;;;;;;14.44;94.40;101683.78;4981005;28;19914;-73
2022/10/30 03:39:26;;;;;;;;;;;;;;;14.42;94.36;101683.00;4997479;28;19973;-73
2022/10/30 03:41:51;;;;;;;;;;;;;;;14.40;94.39;101688.34;4998506;28;19913;-73
2022/10/30 03:44:16;;;;;;;;;;;;;;;14.40;94.26;101682.22;4980264;28;19914;-73
2022/10/30 03:46:42;;;;;;;;;;;;;;;14.38;94.37;101686.72;4996680;28;19922;-73
2022/10/30 03:49:07;;;;;;;;;;;;;;;14.37;94.52;101692.88;4998335;28;19905;-73
2022/10/30 03:51:32;;;;;;;;;;;;;;;14.34;94.48;101688.63;4981806;28;19926;-73
2022/10/30 03:53:58;;;;;;;;;;;;;;;14.33;94.25;101692.16;4998654;28;19914;-75
2022/10/30 03:56:23;;;;;;;;;;;;;;;14.33;94.04;101696.59;4999347;28;20097;-75
2022/10/30 03:58:48;;;;;;;;;;;;;;;14.31;94.32;101698.44;4998522;28;19964;-75
2022/10/30 04:01:14;;;;;;;;;;;;;;;14.29;94.30;101700.28;4999372;28;19910;-73
2022/10/30 04:03:39;;;;;;;;;;;;;;;14.28;94.17;101698.56;4998850;28;20097;-73
2022/10/30 04:06:05;;;;;;;;;;;;;;;14.25;94.29;101689.00;4998105;28;19910;-73
2022/10/30 04:08:31;;;;;;;;;;;;;;;14.25;93.95;101685.53;4999245;28;19941;-73
2022/10/30 04:10:56;;;;;;;;;;;;;;;14.22;94.10;101694.41;4999393;28;19914;-73
2022/10/30 04:13:21;;;;;;;;;;;;;;;14.21;94.16;101692.72;4998467;28;19921;-73
2022/10/30 04:15:48;;;;;;;;;;;;;;;14.20;94.01;101696.25;4980901;28;19961;-73
2022/10/30 04:18:15;;;;;;;;;;;;;;;14.19;94.12;101699.81;4998383;28;19913;-73
2022/10/30 04:20:40;;;;;;;;;;;;;;;14.17;93.84;101693.72;4997693;28;19910;-73
2022/10/30 04:23:07;;;;;;;;;;;;;;;14.15;93.90;101692.94;4998704;28;20105;-73
2022/10/30 04:25:33;;;;;;;;;;;;;;;14.13;93.77;101687.75;4999466;28;20255;-75
2022/10/30 04:27:59;;;;;;;;;;;;;;;14.13;93.94;101686.88;4997802;28;20103;-75
2022/10/30 04:30:26;;;;;;;;;;;;;;;14.11;94.26;101700.13;4981068;28;20250;-75
2022/10/30 04:32:52;;;;;;;;;;;;;;;14.10;94.21;101689.66;4999079;28;19937;-75
2022/10/30 04:35:19;;;;;;;;;;;;;;;14.08;94.09;101684.47;4998469;28;19922;-75
2022/10/30 04:37:57;;;;;;;;;;;;;;;14.08;94.25;101678.31;4997121;28;19945;-76
2022/10/30 04:40:24;;;;;;;;;;;;;;;14.07;94.18;101674.00;4981035;28;19918;-73
2022/10/30 04:42:49;;;;;;;;;;;;;;;14.05;94.28;101667.94;4996865;28;20009;-75
2022/10/30 04:45:15;;;;;;;;;;;;;;;14.04;94.33;101664.41;4998142;28;19906;-75
2022/10/30 04:47:40;;;;;;;;;;;;;;;14.03;94.42;101660.09;4998456;28;20209;-75
2022/10/30 04:50:06;;;;;;;;;;;;;;;14.02;94.15;101653.97;4998352;28;19917;-75
2022/10/30 04:52:31;;;;;;;;;;;;;;;14.00;94.45;101650.53;4964555;28;20025;-75
2022/10/30 04:54:56;;;;;;;;;;;;;;;13.99;94.38;101651.47;4997159;28;19918;-75
2022/10/30 04:57:22;;;;;;;;;;;;;;;13.98;94.46;101662.91;4980238;28;19913;-75
2022/10/30 04:59:47;;;;;;;;;;;;;;;13.97;94.59;101650.69;4980905;28;19909;-74
2022/10/30 05:02:13;;;;;;;;;;;;;;;13.97;94.51;101661.22;4999233;28;19918;-75
2022/10/30 05:04:38;;;;;;;;;;;;;;;13.96;94.42;101670.03;4981350;28;19989;-75
2022/10/30 05:07:03;;;;;;;;;;;;;;;13.95;94.26;101672.72;4999247;28;19918;-75
2022/10/30 05:09:28;;;;;;;;;;;;;;;13.93;94.53;101675.41;4999648;28;19945;-75
2022/10/30 05:11:54;;;;;;;;;;;;;;;13.93;94.55;101678.03;4998867;28;19909;-75
2022/10/30 05:14:19;;;;;;;;;;;;;;;13.92;94.46;101678.97;4973688;28;19924;-75
2022/10/30 05:16:44;;;;;;;;;;;;;;;13.92;94.62;101689.50;4979370;28;19917;-75
2022/10/30 05:19:09;;;;;;;;;;;;;;;13.90;94.58;101680.81;4979533;28;19917;-75
2022/10/30 05:21:35;;;;;;;;;;;;;;;13.89;94.47;101671.19;4979772;28;19913;-75
2022/10/30 05:24:00;;;;;;;;;;;;;;;13.88;94.65;101674.75;4979079;28;20121;-75
2022/10/30 05:26:25;;;;;;;;;;;;;;;13.86;94.75;101671.34;4979567;28;19929;-75
2022/10/30 05:28:51;;;;;;;;;;;;;;;13.86;94.71;101667.81;4961828;28;19910;-75
2022/10/30 05:31:16;;;;;;;;;;;;;;;13.85;94.74;101674.88;4979710;28;20001;-75
2022/10/30 05:33:41;;;;;;;;;;;;;;;13.85;94.81;101671.41;4978914;28;19942;-75
2022/10/30 05:36:06;;;;;;;;;;;;;;;13.83;94.52;101674.09;4978216;28;19922;-75
2022/10/30 05:38:32;;;;;;;;;;;;;;;13.82;94.76;101672.34;4978433;28;19960;-75
2022/10/30 05:40:57;;;;;;;;;;;;;;;13.81;94.80;101668.03;4994035;28;19938;-75
2022/10/30 05:43:22;;;;;;;;;;;;;;;13.80;94.50;101677.69;4994221;28;19918;-75
2022/10/30 05:45:48;;;;;;;;;;;;;;;13.78;94.54;101679.53;4979472;28;20224;-75
2022/10/30 05:48:13;;;;;;;;;;;;;;;13.78;94.61;101686.56;4978436;28;19993;-75
2022/10/30 05:50:38;;;;;;;;;;;;;;;13.77;94.73;101693.63;4978704;28;20118;-75
2022/10/30 05:53:04;;;;;;;;;;;;;;;13.77;94.93;101691.00;4979351;28;19957;-75
2022/10/30 05:55:30;;;;;;;;;;;;;;;13.76;94.93;101697.16;4980940;28;20321;-75
2022/10/30 05:57:56;;;;;;;;;;;;;;;13.75;94.64;101699.84;4994424;28;19913;-75
2022/10/30 06:00:21;;;;;;;;;;;;;;;13.75;94.96;101699.84;4994351;28;19910;-75
2022/10/30 06:02:46;;;;;;;;;;;;;;;13.73;94.69;101694.66;4978969;28;19910;-75
2022/10/30 06:05:11;;;;;;;;;;;;;;;13.73;94.73;101693.78;4978034;28;19977;-75
2022/10/30 06:07:36;;;;;;;;;;;;;;;13.71;94.86;101699.13;4978902;28;19949;-75
2022/10/30 06:10:02;;;;;;;;;;;;;;;13.71;94.75;101690.38;4977860;28;20197;-75
2022/10/30 06:12:27;;;;;;;;;;;;;;;13.69;94.80;101690.44;4978897;28;19952;-75
2022/10/30 06:14:53;;;;;;;;;;;;;;;13.69;94.80;101690.44;4980023;28;20109;-75
2022/10/30 06:17:18;;;;;;;;;;;;;;;13.69;95.09;101689.59;4962352;28;19989;-75
2022/10/30 06:19:43;;;;;;;;;;;;;;;13.68;94.96;101687.84;4978744;28;20008;-75
2022/10/30 06:22:08;;;;;;;;;;;;;;;13.68;95.13;101701.00;4986638;28;20125;-75
2022/10/30 06:24:33;;;;;;;;;;;;;;;13.66;94.95;101695.84;4978000;28;20102;-75
2022/10/30 06:26:59;;;;;;;;;;;;;;;13.65;95.05;101702.00;4984768;28;20178;-75
2022/10/30 06:29:24;;;;;;;;;;;;;;;13.65;95.14;101701.16;4978636;28;20213;-75
2022/10/30 06:31:50;;;;;;;;;;;;;;;13.64;95.02;101697.66;4978878;28;19961;-75
2022/10/30 06:34:15;;;;;;;;;;;;;;;13.63;95.07;101704.69;4981652;28;20307;-75
2022/10/30 06:36:40;;;;;;;;;;;;;;;13.62;95.35;101697.75;4980456;28;20101;-75
2022/10/30 06:39:05;;;;;;;;;;;;;;;13.62;95.32;101696.84;4980408;28;19925;-75
2022/10/30 06:41:32;;;;;;;;;;;;;;;13.62;95.38;101691.59;4960861;28;19945;-75
2022/10/30 06:43:57;;;;;;;;;;;;;;;13.61;95.28;101692.53;4982008;28;19921;-75
2022/10/30 06:46:23;;;;;;;;;;;;;;;13.60;95.38;101693.44;4978909;28;19917;-75
2022/10/30 06:48:48;;;;;;;;;;;;;;;13.59;95.46;101684.69;4981674;28;19954;-76
2022/10/30 06:51:15;;;;;;;;;;;;;;;13.59;95.28;101689.94;4982618;28;19988;-75
2022/10/30 06:53:40;;;;;;;;;;;;;;;13.59;95.49;101689.09;4963746;28;19910;-75
2022/10/30 06:56:06;;;;;;;;;;;;;;;13.58;95.46;101685.59;4981626;28;19929;-75
2022/10/30 06:58:31;;;;;;;;;;;;;;;13.58;95.39;101676.84;4964142;28;20253;-75
2022/10/30 07:00:58;;;;;;;;;;;;;;;13.58;95.48;101675.06;4964375;28;19918;-75
2022/10/30 07:03:24;;;;;;;;;;;;;;;13.58;95.58;101672.44;4984803;28;19914;-75
2022/10/30 07:05:50;;;;;;;;;;;;;;;13.58;95.83;101674.22;4964394;28;20114;-75
2022/10/30 07:08:16;;;;;;;;;;;;;;;13.59;95.68;101671.53;4988358;28;19910;-75
2022/10/30 07:10:41;;;;;;;;;;;;;;;13.58;95.83;101680.34;4981366;28;19957;-75
2022/10/30 07:13:07;;;;;;;;;;;;;;;13.59;95.65;101686.47;4972177;28;19951;-75
2022/10/30 07:15:32;;;;;;;;;;;;;;;13.60;95.83;101688.16;4978872;28;19968;-75
2022/10/30 07:17:59;;;;;;;;;;;;;;;13.59;95.79;101684.69;4983602;28;19905;-75
2022/10/30 07:20:25;;;;;;;;;;;;;;;13.59;95.97;101686.47;4983512;28;19955;-75
2022/10/30 07:22:51;;;;;;;;;;;;;;;13.59;96.03;101687.31;5009476;28;20119;-75
2022/10/30 07:25:16;;;;;;;;;;;;;;;13.59;96.21;101684.69;4992172;28;20173;-75
2022/10/30 07:27:45;;;;;;;;;;;;;;;13.60;96.04;101686.38;4997914;28;19913;-75
2022/10/30 07:30:11;;;;;;;;;;;;;;;13.59;96.22;101692.59;5001257;28;19913;-75
2022/10/30 07:32:37;;;;;;;;;;;;;;;13.60;96.27;101694.28;4982897;28;19917;-75
2022/10/30 07:35:02;;;;;;;;;;;;;;;13.61;96.39;101695.16;5000294;28;19957;-75
2022/10/30 07:37:28;;;;;;;;;;;;;;;13.60;96.44;101702.19;5011291;28;20193;-75
2022/10/30 07:39:53;;;;;;;;;;;;;;;13.61;96.55;101695.16;4999389;28;19922;-75
2022/10/30 07:42:19;;;;;;;;;;;;;;;13.60;96.47;101699.53;5002677;28;19945;-75
2022/10/30 07:44:44;;;;;;;;;;;;;;;13.62;96.70;101700.38;4982791;28;19910;-75
2022/10/30 07:47:09;;;;;;;;;;;;;;;13.62;97.01;101694.22;4982702;28;19941;-75
2022/10/30 07:49:34;;;;;;;;;;;;;;;13.62;96.86;101700.38;4989821;28;20004;-75
2022/10/30 07:52:00;;;;;;;;;;;;;;;13.62;97.11;101700.38;5008237;28;19949;-75
2022/10/30 07:54:25;;;;;;;;;;;;;;;13.63;97.02;101696.81;4993180;28;19992;-75
2022/10/30 07:56:50;;;;;;;;;;;;;;;13.63;97.09;101691.53;5010031;28;19922;-75
2022/10/30 07:59:16;;;;;;;;;;;;;;;13.64;96.92;101695.03;4989088;28;19910;-75
2022/10/30 08:01:41;;;;;;;;;;;;;;;13.65;96.75;101694.13;4982603;28;19929;-75
2022/10/30 08:04:10;;;;;;;;;;;;;;;13.66;96.78;101700.22;5000175;28;20263;-75
2022/10/30 08:06:35;;;;;;;;;;;;;;;13.68;97.20;101703.66;4982855;28;20000;-75
2022/10/30 08:09:00;;;;;;;;;;;;;;;13.67;97.15;101713.31;4999932;28;19921;-75
2022/10/30 08:11:25;;;;;;;;;;;;;;;13.69;97.19;101710.63;4991021;28;19910;-75
2022/10/30 08:13:51;;;;;;;;;;;;;;;13.70;97.18;101714.97;4994592;28;19918;-75
2022/10/30 08:16:17;;;;;;;;;;;;;;;13.71;97.53;101720.19;4980966;28;19997;-75
2022/10/30 08:18:42;;;;;;;;;;;;;;;13.73;97.54;101722.75;4979823;28;19913;-75
2022/10/30 08:21:07;;;;;;;;;;;;;;;13.74;97.86;101724.47;4980567;28;19964;-75
2022/10/30 08:23:33;;;;;;;;;;;;;;;13.75;98.13;101720.91;4980592;28;19949;-75
2022/10/30 08:26:01;;;;;;;;;;;;;;;13.77;98.64;101724.34;4996433;28;19953;-75
2022/10/30 08:28:26;;;;;;;;;;;;;;;13.78;99.23;101726.91;4963823;28;20213;-75
2022/10/30 08:30:52;;;;;;;;;;;;;;;13.80;99.67;101724.22;4979643;28;19946;-75
2022/10/30 08:33:17;;;;;;;;;;;;;;;13.82;100.00;101727.66;4962807;28;19933;-74
2022/10/30 08:35:47;;;;;;;;;;;;;;;13.85;100.00;101727.53;4979112;28;19925;-75
2022/10/30 08:38:12;;;;;;;;;;;;;;;13.86;100.00;101718.72;4977688;28;19917;-75
2022/10/30 08:40:37;;;;;;;;;;;;;;;13.89;100.00;101707.22;4983019;28;19914;-75
2022/10/30 08:43:02;;;;;;;;;;;;;;;13.90;100.00;101701.88;4988561;28;19962;-75
2022/10/30 08:45:28;;;;;;;;;;;;;;;13.93;100.00;101704.38;4986425;28;19965;-75
2022/10/30 08:47:57;;;;;;;;;;;;;;;13.95;100.00;101710.47;4981368;28;19929;-73
2022/10/30 08:50:22;;;;;;;;;;;;;;;13.97;100.00;101719.16;4972759;28;19926;-73
2022/10/30 08:52:47;;;;;;;;;;;;;;;14.00;100.00;101715.53;4968068;28;20121;-72
2022/10/30 08:55:13;;;;;;;;;;;;;;;14.02;100.00;101711.91;4958071;28;20105;-72
2022/10/30 08:57:38;;;;;;;;;;;;;;;14.04;100.00;101717.09;4976152;28;19918;-72
2022/10/30 09:00:04;;;;;;;;;;;;;;;14.05;100.00;101713.56;4977033;28;19929;-72
2022/10/30 09:02:29;;;;;;;;;;;;;;;14.08;100.00;101721.34;4984885;28;19918;-72
2022/10/30 09:04:54;;;;;;;;;;;;;;;14.10;100.00;101726.53;4992053;28;20221;-72
2022/10/30 09:07:20;;;;;;;;;;;;;;;14.11;100.00;101729.09;4981237;28;20017;-72
2022/10/30 09:09:45;;;;;;;;;;;;;;;14.13;100.00;101724.63;4964996;28;19918;-73
2022/10/30 09:12:10;;;;;;;;;;;;;;;14.15;100.00;101732.47;4977388;28;19961;-72
2022/10/30 09:14:36;;;;;;;;;;;;;;;14.18;100.00;101727.06;4992679;28;19937;-73
2022/10/30 09:17:01;;;;;;;;;;;;;;;14.20;100.00;101725.22;4995994;28;19941;-73
2022/10/30 09:19:27;;;;;;;;;;;;;;;14.20;100.00;101719.97;4995147;28;19928;-72
2022/10/30 09:21:53;;;;;;;;;;;;;;;14.23;100.00;101724.25;5010968;28;19918;-72
2022/10/30 09:24:19;;;;;;;;;;;;;;;14.26;100.00;101729.38;4994643;28;19910;-72
2022/10/30 09:26:44;;;;;;;;;;;;;;;14.27;100.00;101729.31;4991712;28;19918;-73
2022/10/30 09:29:09;;;;;;;;;;;;;;;14.29;100.00;101721.34;4989386;28;19945;-72
2022/10/30 09:31:34;;;;;;;;;;;;;;;14.32;100.00;101723.88;4988125;28;19957;-72
2022/10/30 09:34:00;;;;;;;;;;;;;;;14.34;100.00;101728.13;4994941;28;19922;-72
2022/10/30 09:36:25;;;;;;;;;;;;;;;14.36;100.00;101717.53;4977278;28;19918;-72
2022/10/30 09:38:50;;;;;;;;;;;;;;;14.38;100.00;101721.81;4994654;28;19913;-72
2022/10/30 09:41:15;;;;;;;;;;;;;;;14.39;100.00;101715.63;4994645;28;19918;-72
2022/10/30 09:43:50;;;;;;;;;;;;;;;14.41;100.00;101707.66;5011452;28;19905;-72
2022/10/30 09:46:24;;;;;;;;;;;;;;;14.46;100.00;101710.97;4995370;28;20287;-72
2022/10/30 09:49:10;;;;;;;;;;;;;;;14.48;100.00;101714.38;4992192;28;19937;-72
2022/10/30 09:51:54;;;;;;;;;;;;;;;14.52;100.00;101717.75;4990694;28;19924;-72
2022/10/30 09:54:19;;;;;;;;;;;;;;;14.55;100.00;101717.59;4982597;28;20274;-72
2022/10/30 09:56:47;;;;;;;;;;;;;;;14.58;100.00;101713.06;4993870;28;19945;-72
2022/10/30 09:59:13;;;;;;;;;;;;;;;14.61;100.00;101722.66;4995143;28;19925;-72
2022/10/30 10:02:10;;;;;;;;;;;;;;;14.66;100.00;101709.25;4990357;28;19909;-72
2022/10/30 10:04:42;;;;;;;;;;;;;;;14.70;100.00;101701.16;4990318;28;19956;-72
2022/10/30 10:07:27;;;;;;;;;;;;;;;14.75;100.00;101698.28;4995547;28;20209;-73
2022/10/30 10:09:57;;;;;;;;;;;;;;;14.80;100.00;101706.00;4995762;28;19914;-72
2022/10/30 10:12:27;;;;;;;;;;;;;;;14.84;100.00;101712.84;4995595;28;19924;-72
2022/10/30 10:14:54;;;;;;;;;;;;;;;14.90;100.00;101712.59;4981791;28;20169;-72
2022/10/30 10:17:26;;;;;;;;;;;;;;;14.94;100.00;101719.44;4975998;28;19918;-72
2022/10/30 10:20:02;;;;;;;;;;;;;;;14.98;100.00;101708.66;4976067;28;19906;-72
2022/10/30 10:22:31;;;;;;;;;;;;;;;15.03;100.00;101715.53;4979625;28;19922;-72
2022/10/30 10:24:56;;;;;;;;;;;;;;;15.07;100.00;101717.94;4980249;28;19921;-73
2022/10/30 10:27:45;;;;;;;;;;;;;;;15.12;100.00;101713.31;4979653;28;19922;-72
2022/10/30 10:30:19;;;;;;;;;;;;;;;15.18;100.00;101716.63;4969399;28;19906;-72
2022/10/30 10:32:44;;;;;;;;;;;;;;;15.20;100.00;101705.06;4979355;28;20000;-73
2022/10/30 10:35:15;;;;;;;;;;;;;;;15.24;100.00;101698.69;4978075;28;19917;-72
2022/10/30 10:37:51;;;;;;;;;;;;;;;15.28;99.79;101700.28;4979748;28;20145;-72
2022/10/30 10:40:34;;;;;;;;;;;;;;;15.31;99.27;101696.63;4979304;28;19914;-72
2022/10/30 10:43:09;;;;;;;;;;;;;;;15.35;99.45;101704.34;4979323;28;19925;-72
2022/10/30 10:46:06;;;;;;;;;;;;;;;15.37;98.83;101696.34;4979676;28;19914;-72
2022/10/30 10:48:43;;;;;;;;;;;;;;;15.41;98.45;101694.41;4957125;28;19918;-72
2022/10/30 10:51:16;;;;;;;;;;;;;;;15.44;98.63;101689.00;4962019;28;20241;-72
2022/10/30 10:53:53;;;;;;;;;;;;;;;15.47;99.11;101692.34;4978835;28;19929;-72
2022/10/30 10:56:20;;;;;;;;;;;;;;;15.49;98.98;101685.19;4979386;28;19924;-73
2022/10/30 10:58:45;;;;;;;;;;;;;;;15.53;98.31;101691.19;4978992;28;19940;-72
2022/10/30 11:01:12;;;;;;;;;;;;;;;15.53;97.40;101686.78;4978813;28;20229;-73
2022/10/30 11:03:53;;;;;;;;;;;;;;;15.57;97.79;101684.81;4993716;28;19909;-72
2022/10/30 11:06:25;;;;;;;;;;;;;;;15.60;98.64;101686.47;4978698;28;20108;-72
2022/10/30 11:08:52;;;;;;;;;;;;;;;15.62;98.45;101692.53;4978936;28;20387;-72
2022/10/30 11:11:17;;;;;;;;;;;;;;;15.64;98.46;101675.69;4978436;28;20139;-73
2022/10/30 11:13:44;;;;;;;;;;;;;;;15.66;98.44;101670.31;4963705;28;20000;-73
2022/10/30 11:16:24;;;;;;;;;;;;;;;15.69;98.40;101673.69;4998257;28;19985;-70
2022/10/30 11:18:53;;;;;;;;;;;;;;;15.71;98.62;101670.97;5001070;28;19917;-73
2022/10/30 11:21:20;;;;;;;;;;;;;;;15.74;98.99;101676.13;5014870;28;19914;-72
2022/10/30 11:23:46;;;;;;;;;;;;;;;15.78;99.33;101674.19;4995685;28;20275;-72
2022/10/30 11:26:18;;;;;;;;;;;;;;;15.80;99.29;101672.34;4988537;28;19917;-72
2022/10/30 11:28:43;;;;;;;;;;;;;;;15.83;98.40;101670.41;5005070;28;20185;-73
2022/10/30 11:31:22;;;;;;;;;;;;;;;15.84;97.88;101664.16;5007424;28;19913;-72
2022/10/30 11:33:48;;;;;;;;;;;;;;;15.87;97.93;101661.38;5002860;28;19932;-73
2022/10/30 11:36:15;;;;;;;;;;;;;;;15.90;97.65;101658.59;5006389;28;19921;-72
2022/10/30 11:38:40;;;;;;;;;;;;;;;15.93;97.93;101657.56;5003592;28;20227;-72
2022/10/30 11:41:05;;;;;;;;;;;;;;;15.94;97.47;101656.66;5006425;28;19984;-74
2022/10/30 11:43:31;;;;;;;;;;;;;;;15.96;97.26;101656.59;5003989;28;19924;-72
2022/10/30 11:45:56;;;;;;;;;;;;;;;15.98;97.15;101658.22;5013239;28;19914;-72
2022/10/30 11:48:25;;;;;;;;;;;;;;;15.99;97.03;101646.72;5006711;28;20240;-73
2022/10/30 11:50:53;;;;;;;;;;;;;;;16.00;96.21;101647.56;5003627;28;20081;-72
2022/10/30 11:53:24;;;;;;;;;;;;;;;16.03;96.61;101655.34;5007306;28;19921;-72
2022/10/30 11:55:50;;;;;;;;;;;;;;;16.05;96.53;101654.31;5003809;28;19918;-72
2022/10/30 11:58:28;;;;;;;;;;;;;;;16.08;96.85;101662.09;5006793;28;20000;-70
2022/10/30 12:01:01;;;;;;;;;;;;;;;16.10;96.82;101665.53;5002484;28;19914;-72
2022/10/30 12:03:28;;;;;;;;;;;;;;;16.12;97.10;101660.16;5007268;28;19952;-72
2022/10/30 12:06:05;;;;;;;;;;;;;;;16.11;96.77;101672.50;5002190;28;20225;-72
2022/10/30 12:08:30;;;;;;;;;;;;;;;16.14;96.82;101675.94;5007760;28;19913;-72
2022/10/30 12:10:58;;;;;;;;;;;;;;;16.13;97.02;101667.13;5003688;28;19956;-72
2022/10/30 12:13:25;;;;;;;;;;;;;;;16.15;97.58;101667.91;5004944;28;19918;-72
2022/10/30 12:16:03;;;;;;;;;;;;;;;16.15;97.28;101675.84;4986834;28;19969;-72
2022/10/30 12:18:29;;;;;;;;;;;;;;;16.16;97.03;101668.78;5011485;28;19914;-72
2022/10/30 12:20:57;;;;;;;;;;;;;;;16.16;97.10;101674.91;5000387;28;19929;-72
2022/10/30 12:23:24;;;;;;;;;;;;;;;16.18;97.24;101670.41;4980469;28;19906;-72
2022/10/30 12:25:53;;;;;;;;;;;;;;;16.18;97.48;101673.06;4996600;28;19929;-72
2022/10/30 12:28:23;;;;;;;;;;;;;;;16.19;97.46;101674.78;4996643;28;20297;-72
2022/10/30 12:30:56;;;;;;;;;;;;;;;16.19;97.56;101680.06;4996292;28;20014;-72
2022/10/30 12:33:21;;;;;;;;;;;;;;;16.19;97.38;101674.78;4994218;28;19913;-72
2022/10/30 12:35:57;;;;;;;;;;;;;;;16.19;97.17;101669.50;4996012;28;19993;-72
2022/10/30 12:38:28;;;;;;;;;;;;;;;16.21;97.20;101656.16;4996417;28;19918;-72